sensor_id;sensor_type;location;lat;lon;timestamp;P1;durP1;ratioP1;P2;durP2;ratioP2
69185;SDS011;56298;49.246;9.410;2023-07-31T00:00:01;5.40;;;1.40;;
69185;SDS011;56298;49.246;9.410;2023-07-31T00:02:27;6.23;;;1.70;;
69185;SDS011;56298;49.246;9.410;2023-07-31T00:04:52;6.20;;;1.50;;
69185;SDS011;56298;49.246;9.410;2023-07-31T00:07:17;6.17;;;1.53;;
69185;SDS011;56298;49.246;9.410;2023-07-31T00:09:43;4.30;;;1.40;;
69185;SDS011;56298;49.246;9.410;2023-07-31T00:12:08;9.30;;;1.60;;
69185;SDS011;56298;49.246;9.410;2023-07-31T00:14:33;5.90;;;1.40;;
69185;SDS011;56298;49.246;9.410;2023-07-31T00:16:58;5.53;;;1.50;;
69185;SDS011;56298;49.246;9.410;2023-07-31T00:19:24;5.50;;;1.60;;
69185;SDS011;56298;49.246;9.410;2023-07-31T00:21:49;6.00;;;1.50;;
69185;SDS011;56298;49.246;9.410;2023-07-31T00:24:14;5.63;;;1.60;;
69185;SDS011;56298;49.246;9.410;2023-07-31T00:26:39;5.80;;;1.50;;
69185;SDS011;56298;49.246;9.410;2023-07-31T00:29:05;6.13;;;1.40;;
69185;SDS011;56298;49.246;9.410;2023-07-31T00:31:30;5.93;;;1.40;;
69185;SDS011;56298;49.246;9.410;2023-07-31T00:33:55;5.70;;;1.40;;
69185;SDS011;56298;49.246;9.410;2023-07-31T00:36:20;5.20;;;1.50;;
69185;SDS011;56298;49.246;9.410;2023-07-31T00:38:46;6.65;;;1.60;;
69185;SDS011;56298;49.246;9.410;2023-07-31T00:41:11;6.40;;;1.87;;
69185;SDS011;56298;49.246;9.410;2023-07-31T00:43:36;7.27;;;1.63;;
69185;SDS011;56298;49.246;9.410;2023-07-31T00:46:01;6.67;;;1.70;;
69185;SDS011;56298;49.246;9.410;2023-07-31T00:48:27;7.33;;;1.63;;
69185;SDS011;56298;49.246;9.410;2023-07-31T00:50:52;6.10;;;1.50;;
69185;SDS011;56298;49.246;9.410;2023-07-31T00:53:17;6.03;;;1.47;;
69185;SDS011;56298;49.246;9.410;2023-07-31T00:55:43;7.80;;;1.67;;
69185;SDS011;56298;49.246;9.410;2023-07-31T00:58:09;5.07;;;1.50;;
69185;SDS011;56298;49.246;9.410;2023-07-31T01:00:34;7.60;;;1.57;;
69185;SDS011;56298;49.246;9.410;2023-07-31T01:03:00;5.67;;;1.40;;
69185;SDS011;56298;49.246;9.410;2023-07-31T01:05:29;5.00;;;1.53;;
69185;SDS011;56298;49.246;9.410;2023-07-31T01:08:04;7.78;;;1.60;;
69185;SDS011;56298;49.246;9.410;2023-07-31T01:10:42;6.57;;;1.48;;
69185;SDS011;56298;49.246;9.410;2023-07-31T01:13:15;7.20;;;1.70;;
69185;SDS011;56298;49.246;9.410;2023-07-31T01:15:42;6.40;;;1.70;;
69185;SDS011;56298;49.246;9.410;2023-07-31T01:18:08;5.43;;;1.37;;
69185;SDS011;56298;49.246;9.410;2023-07-31T01:20:33;7.30;;;1.60;;
69185;SDS011;56298;49.246;9.410;2023-07-31T01:28:36;5.83;;;1.47;;
69185;SDS011;56298;49.246;9.410;2023-07-31T01:31:23;5.28;;;1.55;;
69185;SDS011;56298;49.246;9.410;2023-07-31T01:33:50;5.47;;;1.70;;
69185;SDS011;56298;49.246;9.410;2023-07-31T01:36:18;7.93;;;1.70;;
69185;SDS011;56298;49.246;9.410;2023-07-31T01:38:44;5.90;;;1.70;;
69185;SDS011;56298;49.246;9.410;2023-07-31T01:41:09;6.77;;;1.57;;
69185;SDS011;56298;49.246;9.410;2023-07-31T01:43:34;6.03;;;1.77;;
69185;SDS011;56298;49.246;9.410;2023-07-31T01:45:59;6.70;;;1.60;;
69185;SDS011;56298;49.246;9.410;2023-07-31T01:48:25;6.03;;;1.50;;
69185;SDS011;56298;49.246;9.410;2023-07-31T01:50:50;6.20;;;1.50;;
69185;SDS011;56298;49.246;9.410;2023-07-31T01:53:15;7.60;;;1.80;;
69185;SDS011;56298;49.246;9.410;2023-07-31T01:55:40;5.55;;;1.50;;
69185;SDS011;56298;49.246;9.410;2023-07-31T01:58:06;5.93;;;1.50;;
69185;SDS011;56298;49.246;9.410;2023-07-31T02:00:31;5.53;;;1.70;;
69185;SDS011;56298;49.246;9.410;2023-07-31T02:02:56;5.40;;;1.63;;
69185;SDS011;56298;49.246;9.410;2023-07-31T02:05:21;6.10;;;1.83;;
69185;SDS011;56298;49.246;9.410;2023-07-31T02:07:46;4.80;;;1.60;;
69185;SDS011;56298;49.246;9.410;2023-07-31T02:10:12;5.10;;;1.60;;
69185;SDS011;56298;49.246;9.410;2023-07-31T02:12:37;8.03;;;1.70;;
69185;SDS011;56298;49.246;9.410;2023-07-31T02:15:03;5.77;;;1.70;;
69185;SDS011;56298;49.246;9.410;2023-07-31T02:17:28;6.33;;;1.80;;
69185;SDS011;56298;49.246;9.410;2023-07-31T02:19:54;6.22;;;1.65;;
69185;SDS011;56298;49.246;9.410;2023-07-31T02:22:19;6.80;;;1.57;;
69185;SDS011;56298;49.246;9.410;2023-07-31T02:24:45;5.43;;;1.97;;
69185;SDS011;56298;49.246;9.410;2023-07-31T02:27:10;5.27;;;1.70;;
69185;SDS011;56298;49.246;9.410;2023-07-31T02:29:35;6.57;;;1.60;;
69185;SDS011;56298;49.246;9.410;2023-07-31T02:32:00;7.70;;;1.87;;
69185;SDS011;56298;49.246;9.410;2023-07-31T02:34:25;6.07;;;1.80;;
69185;SDS011;56298;49.246;9.410;2023-07-31T02:36:51;5.33;;;1.80;;
69185;SDS011;56298;49.246;9.410;2023-07-31T02:39:16;4.97;;;1.50;;
69185;SDS011;56298;49.246;9.410;2023-07-31T02:41:41;5.20;;;1.57;;
69185;SDS011;56298;49.246;9.410;2023-07-31T02:44:06;7.50;;;2.03;;
69185;SDS011;56298;49.246;9.410;2023-07-31T02:46:32;6.80;;;1.70;;
69185;SDS011;56298;49.246;9.410;2023-07-31T02:48:57;6.47;;;1.77;;
69185;SDS011;56298;49.246;9.410;2023-07-31T02:51:22;5.30;;;1.60;;
69185;SDS011;56298;49.246;9.410;2023-07-31T02:53:47;7.77;;;1.80;;
69185;SDS011;56298;49.246;9.410;2023-07-31T02:56:13;5.30;;;1.50;;
69185;SDS011;56298;49.246;9.410;2023-07-31T02:58:38;6.20;;;1.60;;
69185;SDS011;56298;49.246;9.410;2023-07-31T03:01:03;6.50;;;1.67;;
69185;SDS011;56298;49.246;9.410;2023-07-31T03:03:29;6.13;;;1.90;;
69185;SDS011;56298;49.246;9.410;2023-07-31T03:05:54;7.53;;;1.50;;
69185;SDS011;56298;49.246;9.410;2023-07-31T03:08:19;7.77;;;1.80;;
69185;SDS011;56298;49.246;9.410;2023-07-31T03:10:45;6.43;;;1.65;;
69185;SDS011;56298;49.246;9.410;2023-07-31T03:13:10;5.63;;;1.60;;
69185;SDS011;56298;49.246;9.410;2023-07-31T03:15:35;6.10;;;1.57;;
69185;SDS011;56298;49.246;9.410;2023-07-31T03:18:00;6.43;;;1.77;;
69185;SDS011;56298;49.246;9.410;2023-07-31T03:20:26;6.03;;;1.70;;
69185;SDS011;56298;49.246;9.410;2023-07-31T03:22:51;5.70;;;1.80;;
69185;SDS011;56298;49.246;9.410;2023-07-31T03:25:16;5.93;;;1.70;;
69185;SDS011;56298;49.246;9.410;2023-07-31T03:27:41;5.80;;;1.70;;
69185;SDS011;56298;49.246;9.410;2023-07-31T03:30:07;6.77;;;1.70;;
69185;SDS011;56298;49.246;9.410;2023-07-31T03:32:32;6.60;;;1.97;;
69185;SDS011;56298;49.246;9.410;2023-07-31T03:34:58;5.50;;;1.80;;
69185;SDS011;56298;49.246;9.410;2023-07-31T03:37:23;8.18;;;2.00;;
69185;SDS011;56298;49.246;9.410;2023-07-31T03:39:48;8.47;;;2.10;;
69185;SDS011;56298;49.246;9.410;2023-07-31T03:42:13;6.83;;;1.83;;
69185;SDS011;56298;49.246;9.410;2023-07-31T03:44:39;5.97;;;1.95;;
69185;SDS011;56298;49.246;9.410;2023-07-31T03:47:05;8.30;;;1.90;;
69185;SDS011;56298;49.246;9.410;2023-07-31T03:49:30;5.83;;;1.73;;
69185;SDS011;56298;49.246;9.410;2023-07-31T03:51:55;7.43;;;1.80;;
69185;SDS011;56298;49.246;9.410;2023-07-31T03:54:21;5.47;;;1.80;;
69185;SDS011;56298;49.246;9.410;2023-07-31T03:56:46;7.40;;;1.77;;
69185;SDS011;56298;49.246;9.410;2023-07-31T03:59:11;6.13;;;1.80;;
69185;SDS011;56298;49.246;9.410;2023-07-31T04:01:36;7.20;;;2.00;;
69185;SDS011;56298;49.246;9.410;2023-07-31T04:04:02;6.40;;;1.73;;
69185;SDS011;56298;49.246;9.410;2023-07-31T04:06:27;5.03;;;1.60;;
69185;SDS011;56298;49.246;9.410;2023-07-31T04:08:52;7.27;;;1.97;;
69185;SDS011;56298;49.246;9.410;2023-07-31T04:11:17;7.93;;;1.97;;
69185;SDS011;56298;49.246;9.410;2023-07-31T04:13:43;5.67;;;1.80;;
69185;SDS011;56298;49.246;9.410;2023-07-31T04:16:08;6.70;;;1.87;;
69185;SDS011;56298;49.246;9.410;2023-07-31T04:18:33;6.20;;;1.77;;
69185;SDS011;56298;49.246;9.410;2023-07-31T04:20:58;6.57;;;1.63;;
69185;SDS011;56298;49.246;9.410;2023-07-31T04:23:24;5.07;;;1.70;;
69185;SDS011;56298;49.246;9.410;2023-07-31T04:25:50;6.93;;;2.03;;
69185;SDS011;56298;49.246;9.410;2023-07-31T04:28:15;6.00;;;1.80;;
69185;SDS011;56298;49.246;9.410;2023-07-31T04:30:40;6.90;;;1.83;;
69185;SDS011;56298;49.246;9.410;2023-07-31T04:33:05;6.00;;;1.80;;
69185;SDS011;56298;49.246;9.410;2023-07-31T04:35:31;6.37;;;1.90;;
69185;SDS011;56298;49.246;9.410;2023-07-31T04:37:56;7.47;;;1.80;;
69185;SDS011;56298;49.246;9.410;2023-07-31T04:40:21;6.33;;;1.60;;
69185;SDS011;56298;49.246;9.410;2023-07-31T04:42:46;5.13;;;1.93;;
69185;SDS011;56298;49.246;9.410;2023-07-31T04:45:12;5.27;;;1.73;;
69185;SDS011;56298;49.246;9.410;2023-07-31T04:47:37;5.17;;;1.80;;
69185;SDS011;56298;49.246;9.410;2023-07-31T04:50:02;5.70;;;1.80;;
69185;SDS011;56298;49.246;9.410;2023-07-31T04:52:28;6.53;;;1.73;;
69185;SDS011;56298;49.246;9.410;2023-07-31T04:54:53;8.03;;;1.93;;
69185;SDS011;56298;49.246;9.410;2023-07-31T04:57:18;6.50;;;1.60;;
69185;SDS011;56298;49.246;9.410;2023-07-31T04:59:43;7.50;;;1.90;;
69185;SDS011;56298;49.246;9.410;2023-07-31T05:02:09;7.17;;;1.70;;
69185;SDS011;56298;49.246;9.410;2023-07-31T05:04:36;6.70;;;1.80;;
69185;SDS011;56298;49.246;9.410;2023-07-31T05:07:01;8.40;;;1.90;;
69185;SDS011;56298;49.246;9.410;2023-07-31T05:09:27;7.47;;;1.80;;
69185;SDS011;56298;49.246;9.410;2023-07-31T05:11:52;7.03;;;1.70;;
69185;SDS011;56298;49.246;9.410;2023-07-31T05:14:17;6.47;;;1.60;;
69185;SDS011;56298;49.246;9.410;2023-07-31T05:16:42;7.10;;;1.97;;
69185;SDS011;56298;49.246;9.410;2023-07-31T05:19:08;7.13;;;1.50;;
69185;SDS011;56298;49.246;9.410;2023-07-31T05:21:33;6.97;;;1.97;;
69185;SDS011;56298;49.246;9.410;2023-07-31T05:23:58;7.37;;;2.03;;
69185;SDS011;56298;49.246;9.410;2023-07-31T05:26:24;5.60;;;1.57;;
69185;SDS011;56298;49.246;9.410;2023-07-31T05:28:49;5.30;;;1.60;;
69185;SDS011;56298;49.246;9.410;2023-07-31T05:31:14;5.87;;;1.57;;
69185;SDS011;56298;49.246;9.410;2023-07-31T05:33:39;6.13;;;1.70;;
69185;SDS011;56298;49.246;9.410;2023-07-31T05:36:05;8.97;;;1.70;;
69185;SDS011;56298;49.246;9.410;2023-07-31T05:38:30;6.07;;;1.70;;
69185;SDS011;56298;49.246;9.410;2023-07-31T05:40:55;7.00;;;1.63;;
69185;SDS011;56298;49.246;9.410;2023-07-31T05:43:21;5.47;;;1.50;;
69185;SDS011;56298;49.246;9.410;2023-07-31T05:45:46;6.27;;;1.90;;
69185;SDS011;56298;49.246;9.410;2023-07-31T05:48:12;7.10;;;1.50;;
69185;SDS011;56298;49.246;9.410;2023-07-31T05:50:37;6.87;;;1.90;;
69185;SDS011;56298;49.246;9.410;2023-07-31T05:53:04;5.90;;;1.60;;
69185;SDS011;56298;49.246;9.410;2023-07-31T05:55:29;5.77;;;1.57;;
69185;SDS011;56298;49.246;9.410;2023-07-31T05:57:54;5.07;;;1.50;;
69185;SDS011;56298;49.246;9.410;2023-07-31T06:00:20;5.80;;;1.30;;
69185;SDS011;56298;49.246;9.410;2023-07-31T06:02:45;7.60;;;1.53;;
69185;SDS011;56298;49.246;9.410;2023-07-31T06:05:11;6.20;;;1.50;;
69185;SDS011;56298;49.246;9.410;2023-07-31T06:07:37;6.57;;;1.53;;
69185;SDS011;56298;49.246;9.410;2023-07-31T06:10:02;5.67;;;1.40;;
69185;SDS011;56298;49.246;9.410;2023-07-31T06:12:30;6.63;;;1.33;;
69185;SDS011;56298;49.246;9.410;2023-07-31T06:14:56;5.75;;;1.40;;
69185;SDS011;56298;49.246;9.410;2023-07-31T06:17:21;5.55;;;1.10;;
69185;SDS011;56298;49.246;9.410;2023-07-31T06:19:47;6.07;;;1.43;;
69185;SDS011;56298;49.246;9.410;2023-07-31T06:22:12;6.37;;;1.50;;
69185;SDS011;56298;49.246;9.410;2023-07-31T06:24:37;6.20;;;1.60;;
69185;SDS011;56298;49.246;9.410;2023-07-31T06:27:03;4.80;;;1.40;;
69185;SDS011;56298;49.246;9.410;2023-07-31T06:29:29;6.13;;;1.42;;
69185;SDS011;56298;49.246;9.410;2023-07-31T06:31:54;5.50;;;1.50;;
69185;SDS011;56298;49.246;9.410;2023-07-31T06:34:19;7.23;;;1.60;;
69185;SDS011;56298;49.246;9.410;2023-07-31T06:36:45;5.90;;;1.50;;
69185;SDS011;56298;49.246;9.410;2023-07-31T06:39:10;5.43;;;1.40;;
69185;SDS011;56298;49.246;9.410;2023-07-31T06:41:35;7.37;;;1.80;;
69185;SDS011;56298;49.246;9.410;2023-07-31T06:44:00;5.10;;;1.20;;
69185;SDS011;56298;49.246;9.410;2023-07-31T06:46:26;5.40;;;1.80;;
69185;SDS011;56298;49.246;9.410;2023-07-31T06:48:51;8.87;;;1.60;;
69185;SDS011;56298;49.246;9.410;2023-07-31T06:51:16;5.80;;;1.50;;
69185;SDS011;56298;49.246;9.410;2023-07-31T06:53:41;6.20;;;1.70;;
69185;SDS011;56298;49.246;9.410;2023-07-31T06:56:10;5.13;;;1.40;;
69185;SDS011;56298;49.246;9.410;2023-07-31T06:58:35;6.43;;;1.67;;
69185;SDS011;56298;49.246;9.410;2023-07-31T07:01:00;7.73;;;1.40;;
69185;SDS011;56298;49.246;9.410;2023-07-31T07:03:27;7.13;;;1.37;;
69185;SDS011;56298;49.246;9.410;2023-07-31T07:05:52;4.90;;;1.70;;
69185;SDS011;56298;49.246;9.410;2023-07-31T07:08:17;6.45;;;1.60;;
69185;SDS011;56298;49.246;9.410;2023-07-31T07:10:43;7.03;;;1.50;;
69185;SDS011;56298;49.246;9.410;2023-07-31T07:13:08;6.40;;;1.70;;
69185;SDS011;56298;49.246;9.410;2023-07-31T07:15:33;5.65;;;1.40;;
69185;SDS011;56298;49.246;9.410;2023-07-31T07:17:58;6.13;;;1.80;;
69185;SDS011;56298;49.246;9.410;2023-07-31T07:20:24;5.60;;;1.47;;
69185;SDS011;56298;49.246;9.410;2023-07-31T07:22:49;6.63;;;1.50;;
69185;SDS011;56298;49.246;9.410;2023-07-31T07:25:14;6.25;;;1.75;;
69185;SDS011;56298;49.246;9.410;2023-07-31T07:27:39;6.35;;;1.67;;
69185;SDS011;56298;49.246;9.410;2023-07-31T07:30:05;7.63;;;1.63;;
69185;SDS011;56298;49.246;9.410;2023-07-31T07:32:31;5.65;;;1.60;;
69185;SDS011;56298;49.246;9.410;2023-07-31T07:34:56;6.90;;;1.77;;
69185;SDS011;56298;49.246;9.410;2023-07-31T07:37:21;7.30;;;1.80;;
69185;SDS011;56298;49.246;9.410;2023-07-31T07:39:47;8.73;;;2.40;;
69185;SDS011;56298;49.246;9.410;2023-07-31T07:42:12;7.93;;;1.90;;
69185;SDS011;56298;49.246;9.410;2023-07-31T07:44:37;6.93;;;1.60;;
69185;SDS011;56298;49.246;9.410;2023-07-31T07:47:02;9.83;;;1.90;;
69185;SDS011;56298;49.246;9.410;2023-07-31T07:49:28;6.00;;;1.65;;
69185;SDS011;56298;49.246;9.410;2023-07-31T07:51:53;6.95;;;1.75;;
69185;SDS011;56298;49.246;9.410;2023-07-31T07:54:18;7.53;;;1.70;;
69185;SDS011;56298;49.246;9.410;2023-07-31T07:56:45;6.57;;;1.93;;
69185;SDS011;56298;49.246;9.410;2023-07-31T07:59:11;6.35;;;1.80;;
69185;SDS011;56298;49.246;9.410;2023-07-31T08:01:36;6.10;;;1.60;;
69185;SDS011;56298;49.246;9.410;2023-07-31T08:04:01;5.67;;;1.87;;
69185;SDS011;56298;49.246;9.410;2023-07-31T08:06:27;6.90;;;1.50;;
69185;SDS011;56298;49.246;9.410;2023-07-31T08:08:52;7.70;;;1.60;;
69185;SDS011;56298;49.246;9.410;2023-07-31T08:11:17;6.20;;;1.43;;
69185;SDS011;56298;49.246;9.410;2023-07-31T08:13:42;5.97;;;1.30;;
69185;SDS011;56298;49.246;9.410;2023-07-31T08:16:08;7.40;;;1.50;;
69185;SDS011;56298;49.246;9.410;2023-07-31T08:18:33;7.20;;;2.00;;
69185;SDS011;56298;49.246;9.410;2023-07-31T08:20:59;6.13;;;1.83;;
69185;SDS011;56298;49.246;9.410;2023-07-31T08:23:24;6.60;;;2.00;;
69185;SDS011;56298;49.246;9.410;2023-07-31T08:25:49;7.33;;;2.10;;
69185;SDS011;56298;49.246;9.410;2023-07-31T08:28:15;5.88;;;1.80;;
69185;SDS011;56298;49.246;9.410;2023-07-31T08:30:41;6.90;;;1.80;;
69185;SDS011;56298;49.246;9.410;2023-07-31T08:33:07;6.55;;;1.83;;
69185;SDS011;56298;49.246;9.410;2023-07-31T08:35:32;6.87;;;1.90;;
69185;SDS011;56298;49.246;9.410;2023-07-31T08:37:57;6.00;;;1.70;;
69185;SDS011;56298;49.246;9.410;2023-07-31T08:40:22;7.77;;;1.80;;
69185;SDS011;56298;49.246;9.410;2023-07-31T08:42:48;6.67;;;1.70;;
69185;SDS011;56298;49.246;9.410;2023-07-31T08:45:18;6.03;;;1.63;;
69185;SDS011;56298;49.246;9.410;2023-07-31T08:47:44;7.32;;;1.83;;
69185;SDS011;56298;49.246;9.410;2023-07-31T08:50:15;7.60;;;1.92;;
69185;SDS011;56298;49.246;9.410;2023-07-31T08:52:42;6.53;;;1.75;;
69185;SDS011;56298;49.246;9.410;2023-07-31T08:55:08;7.28;;;1.80;;
69185;SDS011;56298;49.246;9.410;2023-07-31T08:57:34;7.47;;;1.70;;
69185;SDS011;56298;49.246;9.410;2023-07-31T09:00:02;7.45;;;1.80;;
69185;SDS011;56298;49.246;9.410;2023-07-31T09:02:31;6.47;;;1.75;;
69185;SDS011;56298;49.246;9.410;2023-07-31T09:05:02;7.10;;;1.77;;
69185;SDS011;56298;49.246;9.410;2023-07-31T09:07:29;7.75;;;1.85;;
69185;SDS011;56298;49.246;9.410;2023-07-31T09:09:56;7.63;;;1.85;;
69185;SDS011;56298;49.246;9.410;2023-07-31T09:12:22;7.47;;;1.80;;
69185;SDS011;56298;49.246;9.410;2023-07-31T09:14:47;8.10;;;1.90;;
69185;SDS011;56298;49.246;9.410;2023-07-31T09:17:13;6.57;;;1.87;;
69185;SDS011;56298;49.246;9.410;2023-07-31T09:19:38;6.93;;;1.60;;
69185;SDS011;56298;49.246;9.410;2023-07-31T09:22:07;7.00;;;1.83;;
69185;SDS011;56298;49.246;9.410;2023-07-31T09:24:33;6.03;;;1.77;;
69185;SDS011;56298;49.246;9.410;2023-07-31T09:27:00;7.03;;;1.85;;
69185;SDS011;56298;49.246;9.410;2023-07-31T09:29:26;6.28;;;1.80;;
69185;SDS011;56298;49.246;9.410;2023-07-31T09:31:53;7.43;;;1.83;;
69185;SDS011;56298;49.246;9.410;2023-07-31T09:34:19;6.30;;;1.80;;
69185;SDS011;56298;49.246;9.410;2023-07-31T09:36:46;8.75;;;1.77;;
69185;SDS011;56298;49.246;9.410;2023-07-31T09:39:13;5.78;;;1.75;;
69185;SDS011;56298;49.246;9.410;2023-07-31T09:41:45;5.97;;;1.70;;
69185;SDS011;56298;49.246;9.410;2023-07-31T09:44:12;8.02;;;1.70;;
69185;SDS011;56298;49.246;9.410;2023-07-31T09:46:38;7.00;;;1.70;;
69185;SDS011;56298;49.246;9.410;2023-07-31T09:49:07;8.73;;;2.00;;
69185;SDS011;56298;49.246;9.410;2023-07-31T09:51:39;7.28;;;1.90;;
69185;SDS011;56298;49.246;9.410;2023-07-31T09:54:13;7.88;;;2.10;;
69185;SDS011;56298;49.246;9.410;2023-07-31T09:56:43;6.85;;;1.75;;
69185;SDS011;56298;49.246;9.410;2023-07-31T09:59:13;6.53;;;1.90;;
69185;SDS011;56298;49.246;9.410;2023-07-31T10:01:41;7.30;;;2.38;;
69185;SDS011;56298;49.246;9.410;2023-07-31T10:04:08;6.40;;;2.10;;
69185;SDS011;56298;49.246;9.410;2023-07-31T10:06:37;7.15;;;2.10;;
69185;SDS011;56298;49.246;9.410;2023-07-31T10:09:05;7.75;;;1.98;;
69185;SDS011;56298;49.246;9.410;2023-07-31T10:11:33;7.77;;;1.97;;
69185;SDS011;56298;49.246;9.410;2023-07-31T10:14:04;7.57;;;1.95;;
69185;SDS011;56298;49.246;9.410;2023-07-31T10:16:30;8.75;;;2.15;;
69185;SDS011;56298;49.246;9.410;2023-07-31T10:18:56;6.50;;;2.00;;
69185;SDS011;56298;49.246;9.410;2023-07-31T10:21:23;7.53;;;2.10;;
69185;SDS011;56298;49.246;9.410;2023-07-31T10:23:48;8.50;;;2.10;;
69185;SDS011;56298;49.246;9.410;2023-07-31T10:26:16;7.68;;;2.15;;
69185;SDS011;56298;49.246;9.410;2023-07-31T10:28:44;6.55;;;1.92;;
69185;SDS011;56298;49.246;9.410;2023-07-31T10:31:11;6.33;;;2.23;;
69185;SDS011;56298;49.246;9.410;2023-07-31T10:33:38;6.97;;;2.10;;
69185;SDS011;56298;49.246;9.410;2023-07-31T10:36:19;5.57;;;2.10;;
69185;SDS011;56298;49.246;9.410;2023-07-31T10:38:45;6.28;;;1.80;;
69185;SDS011;56298;49.246;9.410;2023-07-31T10:41:13;6.90;;;2.50;;
69185;SDS011;56298;49.246;9.410;2023-07-31T10:43:39;6.80;;;2.27;;
69185;SDS011;56298;49.246;9.410;2023-07-31T10:46:08;7.55;;;2.08;;
69185;SDS011;56298;49.246;9.410;2023-07-31T10:48:37;7.88;;;2.15;;
69185;SDS011;56298;49.246;9.410;2023-07-31T10:51:09;7.07;;;2.13;;
69185;SDS011;56298;49.246;9.410;2023-07-31T10:53:37;7.28;;;2.13;;
69185;SDS011;56298;49.246;9.410;2023-07-31T10:56:03;6.75;;;2.25;;
69185;SDS011;56298;49.246;9.410;2023-07-31T10:58:30;6.68;;;1.92;;
69185;SDS011;56298;49.246;9.410;2023-07-31T11:00:58;10.68;;;2.10;;
69185;SDS011;56298;49.246;9.410;2023-07-31T11:03:51;7.47;;;2.05;;
69185;SDS011;56298;49.246;9.410;2023-07-31T11:06:19;7.03;;;1.85;;
69185;SDS011;56298;49.246;9.410;2023-07-31T11:08:48;6.50;;;2.00;;
69185;SDS011;56298;49.246;9.410;2023-07-31T11:11:19;7.07;;;2.22;;
69185;SDS011;56298;49.246;9.410;2023-07-31T11:13:52;6.50;;;2.10;;
69185;SDS011;56298;49.246;9.410;2023-07-31T11:16:19;7.32;;;2.20;;
69185;SDS011;56298;49.246;9.410;2023-07-31T11:18:46;7.82;;;2.00;;
69185;SDS011;56298;49.246;9.410;2023-07-31T11:21:22;6.60;;;2.00;;
69185;SDS011;56298;49.246;9.410;2023-07-31T11:23:49;7.07;;;1.95;;
69185;SDS011;56298;49.246;9.410;2023-07-31T11:26:16;7.60;;;2.20;;
69185;SDS011;56298;49.246;9.410;2023-07-31T11:28:42;8.50;;;2.20;;
69185;SDS011;56298;49.246;9.410;2023-07-31T11:31:11;8.80;;;2.27;;
69185;SDS011;56298;49.246;9.410;2023-07-31T11:33:36;6.60;;;2.08;;
69185;SDS011;56298;49.246;9.410;2023-07-31T11:36:02;6.32;;;2.38;;
69185;SDS011;56298;49.246;9.410;2023-07-31T11:38:28;7.53;;;2.20;;
69185;SDS011;56298;49.246;9.410;2023-07-31T11:41:01;8.23;;;2.28;;
69185;SDS011;56298;49.246;9.410;2023-07-31T11:43:28;8.25;;;2.35;;
69185;SDS011;56298;49.246;9.410;2023-07-31T11:45:55;6.80;;;2.40;;
69185;SDS011;56298;49.246;9.410;2023-07-31T11:50:54;7.10;;;2.38;;
69185;SDS011;56298;49.246;9.410;2023-07-31T11:53:44;6.47;;;2.20;;
69185;SDS011;56298;49.246;9.410;2023-07-31T11:56:11;7.80;;;2.40;;
69185;SDS011;56298;49.246;9.410;2023-07-31T11:58:38;8.68;;;2.22;;
69185;SDS011;56298;49.246;9.410;2023-07-31T12:01:04;7.03;;;2.30;;
69185;SDS011;56298;49.246;9.410;2023-07-31T12:03:30;8.57;;;2.50;;
69185;SDS011;56298;49.246;9.410;2023-07-31T12:05:57;8.75;;;2.50;;
69185;SDS011;56298;49.246;9.410;2023-07-31T12:08:23;8.15;;;2.50;;
69185;SDS011;56298;49.246;9.410;2023-07-31T12:10:50;7.13;;;2.30;;
69185;SDS011;56298;49.246;9.410;2023-07-31T12:13:20;6.95;;;2.22;;
69185;SDS011;56298;49.246;9.410;2023-07-31T12:15:47;6.10;;;2.40;;
69185;SDS011;56298;49.246;9.410;2023-07-31T12:18:14;7.90;;;2.60;;
69185;SDS011;56298;49.246;9.410;2023-07-31T12:20:44;7.72;;;2.33;;
69185;SDS011;56298;49.246;9.410;2023-07-31T12:23:14;6.13;;;2.30;;
69185;SDS011;56298;49.246;9.410;2023-07-31T12:25:41;6.87;;;2.10;;
69185;SDS011;56298;49.246;9.410;2023-07-31T12:28:07;7.38;;;2.35;;
69185;SDS011;56298;49.246;9.410;2023-07-31T12:30:36;7.03;;;2.20;;
69185;SDS011;56298;49.246;9.410;2023-07-31T12:33:06;6.47;;;2.33;;
69185;SDS011;56298;49.246;9.410;2023-07-31T12:35:37;7.50;;;2.30;;
69185;SDS011;56298;49.246;9.410;2023-07-31T12:38:03;8.65;;;2.20;;
69185;SDS011;56298;49.246;9.410;2023-07-31T12:40:29;7.10;;;2.50;;
69185;SDS011;56298;49.246;9.410;2023-07-31T12:42:54;6.63;;;1.90;;
69185;SDS011;56298;49.246;9.410;2023-07-31T12:45:19;6.97;;;2.23;;
69185;SDS011;56298;49.246;9.410;2023-07-31T12:47:46;8.70;;;2.13;;
69185;SDS011;56298;49.246;9.410;2023-07-31T12:50:11;7.30;;;2.57;;
69185;SDS011;56298;49.246;9.410;2023-07-31T12:52:37;7.97;;;2.20;;
69185;SDS011;56298;49.246;9.410;2023-07-31T12:55:03;5.40;;;2.10;;
69185;SDS011;56298;49.246;9.410;2023-07-31T12:57:29;6.63;;;2.05;;
69185;SDS011;56298;49.246;9.410;2023-07-31T12:59:55;7.65;;;2.00;;
69185;SDS011;56298;49.246;9.410;2023-07-31T13:02:20;6.93;;;2.10;;
69185;SDS011;56298;49.246;9.410;2023-07-31T13:04:45;7.43;;;2.10;;
69185;SDS011;56298;49.246;9.410;2023-07-31T13:07:10;6.73;;;2.47;;
69185;SDS011;56298;49.246;9.410;2023-07-31T13:09:35;6.20;;;2.20;;
69185;SDS011;56298;49.246;9.410;2023-07-31T13:12:01;7.27;;;2.40;;
69185;SDS011;56298;49.246;9.410;2023-07-31T13:14:26;6.77;;;2.10;;
69185;SDS011;56298;49.246;9.410;2023-07-31T13:16:51;6.97;;;2.40;;
69185;SDS011;56298;49.246;9.410;2023-07-31T13:19:16;7.77;;;2.07;;
69185;SDS011;56298;49.246;9.410;2023-07-31T13:21:42;6.90;;;2.20;;
69185;SDS011;56298;49.246;9.410;2023-07-31T13:24:07;5.77;;;1.80;;
69185;SDS011;56298;49.246;9.410;2023-07-31T13:26:32;6.13;;;2.10;;
69185;SDS011;56298;49.246;9.410;2023-07-31T13:28:57;6.50;;;2.27;;
69185;SDS011;56298;49.246;9.410;2023-07-31T13:31:23;7.40;;;2.17;;
69185;SDS011;56298;49.246;9.410;2023-07-31T13:33:48;7.00;;;2.00;;
69185;SDS011;56298;49.246;9.410;2023-07-31T13:36:13;8.03;;;2.40;;
69185;SDS011;56298;49.246;9.410;2023-07-31T13:38:39;5.47;;;1.90;;
69185;SDS011;56298;49.246;9.410;2023-07-31T13:41:04;7.80;;;2.30;;
69185;SDS011;56298;49.246;9.410;2023-07-31T13:43:30;6.78;;;2.13;;
69185;SDS011;56298;49.246;9.410;2023-07-31T13:45:55;6.60;;;2.10;;
69185;SDS011;56298;49.246;9.410;2023-07-31T13:48:20;5.77;;;1.87;;
69185;SDS011;56298;49.246;9.410;2023-07-31T13:50:46;6.53;;;2.22;;
69185;SDS011;56298;49.246;9.410;2023-07-31T13:53:11;7.13;;;2.30;;
69185;SDS011;56298;49.246;9.410;2023-07-31T13:55:36;7.18;;;2.40;;
69185;SDS011;56298;49.246;9.410;2023-07-31T13:58:02;7.70;;;2.13;;
69185;SDS011;56298;49.246;9.410;2023-07-31T14:00:27;6.17;;;2.30;;
69185;SDS011;56298;49.246;9.410;2023-07-31T14:02:53;6.30;;;2.10;;
69185;SDS011;56298;49.246;9.410;2023-07-31T14:05:19;6.83;;;2.13;;
69185;SDS011;56298;49.246;9.410;2023-07-31T14:07:44;7.10;;;2.30;;
69185;SDS011;56298;49.246;9.410;2023-07-31T14:10:09;7.07;;;2.00;;
69185;SDS011;56298;49.246;9.410;2023-07-31T14:12:35;6.23;;;2.27;;
69185;SDS011;56298;49.246;9.410;2023-07-31T14:15:00;6.73;;;2.33;;
69185;SDS011;56298;49.246;9.410;2023-07-31T14:17:25;6.17;;;2.30;;
69185;SDS011;56298;49.246;9.410;2023-07-31T14:19:50;6.30;;;2.30;;
69185;SDS011;56298;49.246;9.410;2023-07-31T14:22:15;6.33;;;2.10;;
69185;SDS011;56298;49.246;9.410;2023-07-31T14:24:52;6.23;;;2.17;;
69185;SDS011;56298;49.246;9.410;2023-07-31T14:27:17;6.33;;;2.30;;
69185;SDS011;56298;49.246;9.410;2023-07-31T14:29:42;7.27;;;2.30;;
69185;SDS011;56298;49.246;9.410;2023-07-31T14:32:08;6.20;;;2.10;;
69185;SDS011;56298;49.246;9.410;2023-07-31T14:34:33;7.55;;;2.10;;
69185;SDS011;56298;49.246;9.410;2023-07-31T14:36:58;7.55;;;1.90;;
69185;SDS011;56298;49.246;9.410;2023-07-31T14:39:23;7.00;;;2.15;;
69185;SDS011;56298;49.246;9.410;2023-07-31T14:41:49;6.57;;;2.20;;
69185;SDS011;56298;49.246;9.410;2023-07-31T14:44:14;5.43;;;1.90;;
69185;SDS011;56298;49.246;9.410;2023-07-31T14:46:39;7.00;;;2.10;;
69185;SDS011;56298;49.246;9.410;2023-07-31T14:49:05;7.17;;;2.10;;